sensor_id;sensor_type;location;lat;lon;timestamp;temperature;humidity
12434;DHT22;6281;49.038;8.372;2023-11-21T00:00:29;9.50;99.90
12434;DHT22;6281;49.038;8.372;2023-11-21T00:02:56;9.40;99.90
12434;DHT22;6281;49.038;8.372;2023-11-21T00:05:23;9.40;99.90
12434;DHT22;6281;49.038;8.372;2023-11-21T00:07:50;9.40;99.90
12434;DHT22;6281;49.038;8.372;2023-11-21T00:10:17;9.50;99.90
12434;DHT22;6281;49.038;8.372;2023-11-21T00:12:46;9.50;99.90
12434;DHT22;6281;49.038;8.372;2023-11-21T00:15:13;9.50;99.90
12434;DHT22;6281;49.038;8.372;2023-11-21T00:17:40;9.50;99.90
12434;DHT22;6281;49.038;8.372;2023-11-21T00:20:08;9.50;99.90
12434;DHT22;6281;49.038;8.372;2023-11-21T00:22:38;9.50;99.90
12434;DHT22;6281;49.038;8.372;2023-11-21T00:25:06;9.50;99.90
12434;DHT22;6281;49.038;8.372;2023-11-21T00:27:34;9.50;99.90
12434;DHT22;6281;49.038;8.372;2023-11-21T00:30:03;9.60;99.90
12434;DHT22;6281;49.038;8.372;2023-11-21T00:32:32;9.60;99.90
12434;DHT22;6281;49.038;8.372;2023-11-21T00:34:59;9.50;99.90
12434;DHT22;6281;49.038;8.372;2023-11-21T00:37:26;9.60;99.90
12434;DHT22;6281;49.038;8.372;2023-11-21T00:39:53;9.60;99.90
12434;DHT22;6281;49.038;8.372;2023-11-21T00:42:20;9.60;99.90
12434;DHT22;6281;49.038;8.372;2023-11-21T00:44:48;9.60;99.90
12434;DHT22;6281;49.038;8.372;2023-11-21T00:47:16;9.60;99.90
12434;DHT22;6281;49.038;8.372;2023-11-21T00:49:43;9.60;99.90
12434;DHT22;6281;49.038;8.372;2023-11-21T00:52:10;9.60;99.90
12434;DHT22;6281;49.038;8.372;2023-11-21T00:54:37;9.60;99.90
12434;DHT22;6281;49.038;8.372;2023-11-21T00:57:04;9.60;99.90
12434;DHT22;6281;49.038;8.372;2023-11-21T00:59:31;9.70;99.90
12434;DHT22;6281;49.038;8.372;2023-11-21T01:01:58;9.70;99.90
12434;DHT22;6281;49.038;8.372;2023-11-21T01:04:28;9.70;99.90
12434;DHT22;6281;49.038;8.372;2023-11-21T01:06:55;9.60;99.90
12434;DHT22;6281;49.038;8.372;2023-11-21T01:09:22;9.60;99.90
12434;DHT22;6281;49.038;8.372;2023-11-21T01:11:51;9.70;99.90
12434;DHT22;6281;49.038;8.372;2023-11-21T01:14:19;9.70;99.90
12434;DHT22;6281;49.038;8.372;2023-11-21T01:16:46;9.60;99.90
12434;DHT22;6281;49.038;8.372;2023-11-21T01:19:13;9.60;99.90
12434;DHT22;6281;49.038;8.372;2023-11-21T01:21:41;9.60;99.90
12434;DHT22;6281;49.038;8.372;2023-11-21T01:24:09;9.60;99.90
12434;DHT22;6281;49.038;8.372;2023-11-21T01:26:36;9.60;99.90
12434;DHT22;6281;49.038;8.372;2023-11-21T01:29:03;9.60;99.90
12434;DHT22;6281;49.038;8.372;2023-11-21T01:31:30;9.60;99.90
12434;DHT22;6281;49.038;8.372;2023-11-21T01:33:57;9.70;99.90
12434;DHT22;6281;49.038;8.372;2023-11-21T01:36:30;9.60;99.90
12434;DHT22;6281;49.038;8.372;2023-11-21T01:38:59;9.60;99.90
12434;DHT22;6281;49.038;8.372;2023-11-21T01:41:26;9.50;99.90
12434;DHT22;6281;49.038;8.372;2023-11-21T01:43:54;9.50;99.90
12434;DHT22;6281;49.038;8.372;2023-11-21T01:46:20;9.60;99.90
12434;DHT22;6281;49.038;8.372;2023-11-21T01:48:48;9.60;99.90
12434;DHT22;6281;49.038;8.372;2023-11-21T01:51:15;9.60;99.90
12434;DHT22;6281;49.038;8.372;2023-11-21T01:53:44;9.50;99.90
12434;DHT22;6281;49.038;8.372;2023-11-21T01:56:13;9.40;99.90
12434;DHT22;6281;49.038;8.372;2023-11-21T01:58:41;9.30;99.90
12434;DHT22;6281;49.038;8.372;2023-11-21T02:01:08;9.40;99.90
12434;DHT22;6281;49.038;8.372;2023-11-21T02:03:35;9.30;99.90
12434;DHT22;6281;49.038;8.372;2023-11-21T02:06:02;9.30;99.90
12434;DHT22;6281;49.038;8.372;2023-11-21T02:08:29;9.30;99.90
12434;DHT22;6281;49.038;8.372;2023-11-21T02:10:57;9.20;99.90
12434;DHT22;6281;49.038;8.372;2023-11-21T02:13:25;9.20;99.90
12434;DHT22;6281;49.038;8.372;2023-11-21T02:15:52;9.40;99.90
12434;DHT22;6281;49.038;8.372;2023-11-21T02:18:19;9.30;99.90
12434;DHT22;6281;49.038;8.372;2023-11-21T02:20:47;9.20;99.90
12434;DHT22;6281;49.038;8.372;2023-11-21T02:23:15;9.10;99.90
12434;DHT22;6281;49.038;8.372;2023-11-21T02:25:43;9.10;99.90
12434;DHT22;6281;49.038;8.372;2023-11-21T02:28:10;9.00;99.90
12434;DHT22;6281;49.038;8.372;2023-11-21T02:30:38;9.10;99.90
12434;DHT22;6281;49.038;8.372;2023-11-21T02:33:05;9.00;99.90
12434;DHT22;6281;49.038;8.372;2023-11-21T02:35:32;9.00;99.90
12434;DHT22;6281;49.038;8.372;2023-11-21T02:38:00;9.00;99.90
12434;DHT22;6281;49.038;8.372;2023-11-21T02:40:28;9.00;99.90
12434;DHT22;6281;49.038;8.372;2023-11-21T02:42:55;9.00;99.90
12434;DHT22;6281;49.038;8.372;2023-11-21T02:45:24;9.10;99.90
12434;DHT22;6281;49.038;8.372;2023-11-21T02:47:51;9.10;99.90
12434;DHT22;6281;49.038;8.372;2023-11-21T02:50:25;9.10;99.90
12434;DHT22;6281;49.038;8.372;2023-11-21T02:52:52;8.90;99.90
12434;DHT22;6281;49.038;8.372;2023-11-21T02:55:19;8.90;99.90
12434;DHT22;6281;49.038;8.372;2023-11-21T02:57:47;9.00;99.90
12434;DHT22;6281;49.038;8.372;2023-11-21T03:00:15;9.00;99.90
12434;DHT22;6281;49.038;8.372;2023-11-21T03:02:42;8.90;99.90
12434;DHT22;6281;49.038;8.372;2023-11-21T03:05:09;8.90;99.90
12434;DHT22;6281;49.038;8.372;2023-11-21T03:07:36;8.90;99.90
12434;DHT22;6281;49.038;8.372;2023-11-21T03:10:04;8.80;99.90
12434;DHT22;6281;49.038;8.372;2023-11-21T03:12:31;8.90;99.90
12434;DHT22;6281;49.038;8.372;2023-11-21T03:14:59;8.80;99.90
12434;DHT22;6281;49.038;8.372;2023-11-21T03:17:27;8.80;99.90
12434;DHT22;6281;49.038;8.372;2023-11-21T03:19:54;8.80;99.90
12434;DHT22;6281;49.038;8.372;2023-11-21T03:22:22;8.90;99.90
12434;DHT22;6281;49.038;8.372;2023-11-21T03:24:49;8.90;99.90
12434;DHT22;6281;49.038;8.372;2023-11-21T03:27:16;8.80;99.90
12434;DHT22;6281;49.038;8.372;2023-11-21T03:29:43;8.80;99.90
12434;DHT22;6281;49.038;8.372;2023-11-21T03:32:11;9.00;99.90
12434;DHT22;6281;49.038;8.372;2023-11-21T03:34:53;8.90;99.90
12434;DHT22;6281;49.038;8.372;2023-11-21T03:37:20;8.90;99.90
12434;DHT22;6281;49.038;8.372;2023-11-21T03:39:47;8.90;99.90
12434;DHT22;6281;49.038;8.372;2023-11-21T03:42:14;9.00;99.90
12434;DHT22;6281;49.038;8.372;2023-11-21T03:44:41;9.10;99.90
12434;DHT22;6281;49.038;8.372;2023-11-21T03:47:07;9.00;99.90
12434;DHT22;6281;49.038;8.372;2023-11-21T03:49:35;9.00;99.90
12434;DHT22;6281;49.038;8.372;2023-11-21T03:52:02;9.00;99.90
12434;DHT22;6281;49.038;8.372;2023-11-21T03:54:29;8.80;99.90
12434;DHT22;6281;49.038;8.372;2023-11-21T03:56:56;8.90;99.90
12434;DHT22;6281;49.038;8.372;2023-11-21T03:59:23;9.00;99.90
12434;DHT22;6281;49.038;8.372;2023-11-21T04:01:50;9.00;99.90
12434;DHT22;6281;49.038;8.372;2023-11-21T04:04:17;9.00;99.90
12434;DHT22;6281;49.038;8.372;2023-11-21T04:06:45;8.90;99.90
12434;DHT22;6281;49.038;8.372;2023-11-21T04:09:12;8.90;99.90
12434;DHT22;6281;49.038;8.372;2023-11-21T04:11:39;9.00;99.90
12434;DHT22;6281;49.038;8.372;2023-11-21T04:14:05;8.90;99.90
12434;DHT22;6281;49.038;8.372;2023-11-21T04:16:32;9.00;99.90
12434;DHT22;6281;49.038;8.372;2023-11-21T04:18:59;8.80;99.90
12434;DHT22;6281;49.038;8.372;2023-11-21T04:21:26;9.00;99.90
12434;DHT22;6281;49.038;8.372;2023-11-21T04:23:54;9.10;99.90
12434;DHT22;6281;49.038;8.372;2023-11-21T04:26:20;9.00;99.90
12434;DHT22;6281;49.038;8.372;2023-11-21T04:28:47;9.10;99.90
12434;DHT22;6281;49.038;8.372;2023-11-21T04:31:14;9.10;99.90
12434;DHT22;6281;49.038;8.372;2023-11-21T04:33:41;9.10;99.90
12434;DHT22;6281;49.038;8.372;2023-11-21T04:36:08;9.10;99.90
12434;DHT22;6281;49.038;8.372;2023-11-21T04:38:36;9.00;99.90
12434;DHT22;6281;49.038;8.372;2023-11-21T04:41:04;9.00;99.90
12434;DHT22;6281;49.038;8.372;2023-11-21T04:43:31;9.00;99.90
12434;DHT22;6281;49.038;8.372;2023-11-21T04:45:57;9.00;99.90
12434;DHT22;6281;49.038;8.372;2023-11-21T04:48:25;9.10;99.90
12434;DHT22;6281;49.038;8.372;2023-11-21T04:50:51;9.00;99.90
12434;DHT22;6281;49.038;8.372;2023-11-21T04:53:18;9.00;99.90
12434;DHT22;6281;49.038;8.372;2023-11-21T04:55:45;9.00;99.90
12434;DHT22;6281;49.038;8.372;2023-11-21T04:58:13;8.90;99.90
12434;DHT22;6281;49.038;8.372;2023-11-21T05:00:40;8.90;99.90
12434;DHT22;6281;49.038;8.372;2023-11-21T05:03:07;8.90;99.90
12434;DHT22;6281;49.038;8.372;2023-11-21T05:05:35;9.00;99.90
12434;DHT22;6281;49.038;8.372;2023-11-21T05:08:02;9.00;99.90
12434;DHT22;6281;49.038;8.372;2023-11-21T05:10:28;9.10;99.90
12434;DHT22;6281;49.038;8.372;2023-11-21T05:12:55;9.00;99.90
12434;DHT22;6281;49.038;8.372;2023-11-21T05:15:24;8.90;99.90
12434;DHT22;6281;49.038;8.372;2023-11-21T05:17:53;8.90;99.90
12434;DHT22;6281;49.038;8.372;2023-11-21T05:20:20;8.80;99.90
12434;DHT22;6281;49.038;8.372;2023-11-21T05:22:47;8.90;99.90
12434;DHT22;6281;49.038;8.372;2023-11-21T05:25:14;9.00;99.90
12434;DHT22;6281;49.038;8.372;2023-11-21T05:27:43;9.00;99.90
12434;DHT22;6281;49.038;8.372;2023-11-21T05:30:11;8.90;99.90
12434;DHT22;6281;49.038;8.372;2023-11-21T05:32:40;8.90;99.90
12434;DHT22;6281;49.038;8.372;2023-11-21T05:35:08;9.00;99.90
12434;DHT22;6281;49.038;8.372;2023-11-21T05:37:39;8.80;99.90
12434;DHT22;6281;49.038;8.372;2023-11-21T05:40:07;8.90;99.90
12434;DHT22;6281;49.038;8.372;2023-11-21T05:42:34;8.90;99.90
12434;DHT22;6281;49.038;8.372;2023-11-21T05:45:01;8.90;99.90
12434;DHT22;6281;49.038;8.372;2023-11-21T05:47:36;8.90;99.90
12434;DHT22;6281;49.038;8.372;2023-11-21T05:50:07;8.80;99.90
12434;DHT22;6281;49.038;8.372;2023-11-21T05:52:37;8.80;99.90
12434;DHT22;6281;49.038;8.372;2023-11-21T05:55:05;8.90;99.90
12434;DHT22;6281;49.038;8.372;2023-11-21T05:57:33;8.90;99.90
12434;DHT22;6281;49.038;8.372;2023-11-21T06:00:02;8.90;99.90
12434;DHT22;6281;49.038;8.372;2023-11-21T06:02:36;8.80;99.90
12434;DHT22;6281;49.038;8.372;2023-11-21T06:05:05;8.80;99.90
12434;DHT22;6281;49.038;8.372;2023-11-21T06:07:32;8.90;99.90
12434;DHT22;6281;49.038;8.372;2023-11-21T06:09:59;8.90;99.90
12434;DHT22;6281;49.038;8.372;2023-11-21T06:12:28;8.90;99.90
12434;DHT22;6281;49.038;8.372;2023-11-21T06:14:55;8.90;99.90
12434;DHT22;6281;49.038;8.372;2023-11-21T06:17:21;8.90;99.90
12434;DHT22;6281;49.038;8.372;2023-11-21T06:19:50;8.80;99.90
12434;DHT22;6281;49.038;8.372;2023-11-21T06:22:19;8.80;99.90
12434;DHT22;6281;49.038;8.372;2023-11-21T06:24:46;8.90;99.90
12434;DHT22;6281;49.038;8.372;2023-11-21T06:27:13;8.90;99.90
12434;DHT22;6281;49.038;8.372;2023-11-21T06:29:40;8.80;99.90
12434;DHT22;6281;49.038;8.372;2023-11-21T06:32:07;8.90;99.90
12434;DHT22;6281;49.038;8.372;2023-11-21T06:34:34;8.90;99.90
12434;DHT22;6281;49.038;8.372;2023-11-21T06:37:01;8.80;99.90
12434;DHT22;6281;49.038;8.372;2023-11-21T06:39:30;8.90;99.90
12434;DHT22;6281;49.038;8.372;2023-11-21T06:41:57;8.90;99.90
12434;DHT22;6281;49.038;8.372;2023-11-21T06:44:25;8.90;99.90
12434;DHT22;6281;49.038;8.372;2023-11-21T06:46:53;9.00;99.90
12434;DHT22;6281;49.038;8.372;2023-11-21T06:49:20;8.90;99.90
12434;DHT22;6281;49.038;8.372;2023-11-21T06:51:47;8.80;99.90
12434;DHT22;6281;49.038;8.372;2023-11-21T06:54:14;8.80;99.90
12434;DHT22;6281;49.038;8.372;2023-11-21T06:56:42;8.90;99.90
12434;DHT22;6281;49.038;8.372;2023-11-21T06:59:09;8.90;99.90
12434;DHT22;6281;49.038;8.372;2023-11-21T07:01:36;8.80;99.90
12434;DHT22;6281;49.038;8.372;2023-11-21T07:04:05;8.90;99.90
12434;DHT22;6281;49.038;8.372;2023-11-21T07:06:32;8.90;99.90
12434;DHT22;6281;49.038;8.372;2023-11-21T07:08:59;8.80;99.90
12434;DHT22;6281;49.038;8.372;2023-11-21T07:11:26;8.90;99.90
12434;DHT22;6281;49.038;8.372;2023-11-21T07:13:55;8.90;99.90
12434;DHT22;6281;49.038;8.372;2023-11-21T07:16:22;8.90;99.90
12434;DHT22;6281;49.038;8.372;2023-11-21T07:18:49;8.90;99.90
12434;DHT22;6281;49.038;8.372;2023-11-21T07:21:16;9.00;99.90
12434;DHT22;6281;49.038;8.372;2023-11-21T07:23:43;8.90;99.90
12434;DHT22;6281;49.038;8.372;2023-11-21T07:26:10;8.90;99.90
12434;DHT22;6281;49.038;8.372;2023-11-21T07:28:37;8.90;99.90
12434;DHT22;6281;49.038;8.372;2023-11-21T07:31:05;8.90;99.90
12434;DHT22;6281;49.038;8.372;2023-11-21T07:33:32;8.80;99.90
12434;DHT22;6281;49.038;8.372;2023-11-21T07:35:59;8.80;99.90
12434;DHT22;6281;49.038;8.372;2023-11-21T07:38:26;8.80;99.90
12434;DHT22;6281;49.038;8.372;2023-11-21T07:40:53;8.80;99.90
12434;DHT22;6281;49.038;8.372;2023-11-21T07:43:20;9.00;99.90
12434;DHT22;6281;49.038;8.372;2023-11-21T07:45:47;9.00;99.90
12434;DHT22;6281;49.038;8.372;2023-11-21T07:48:16;9.10;99.90
12434;DHT22;6281;49.038;8.372;2023-11-21T07:50:43;9.10;99.90
12434;DHT22;6281;49.038;8.372;2023-11-21T07:53:09;9.10;99.90
12434;DHT22;6281;49.038;8.372;2023-11-21T07:55:36;9.20;99.90
12434;DHT22;6281;49.038;8.372;2023-11-21T07:58:03;9.30;99.90
12434;DHT22;6281;49.038;8.372;2023-11-21T08:00:30;9.10;99.90
12434;DHT22;6281;49.038;8.372;2023-11-21T08:02:57;9.20;99.90
12434;DHT22;6281;49.038;8.372;2023-11-21T08:05:25;9.20;99.90
12434;DHT22;6281;49.038;8.372;2023-11-21T08:07:52;9.20;99.90
12434;DHT22;6281;49.038;8.372;2023-11-21T08:10:19;9.20;99.90
12434;DHT22;6281;49.038;8.372;2023-11-21T08:12:47;9.30;99.90
12434;DHT22;6281;49.038;8.372;2023-11-21T08:15:16;9.40;99.90
12434;DHT22;6281;49.038;8.372;2023-11-21T08:17:43;9.50;99.90
12434;DHT22;6281;49.038;8.372;2023-11-21T08:20:11;9.30;99.90
12434;DHT22;6281;49.038;8.372;2023-11-21T08:22:40;9.40;99.90
12434;DHT22;6281;49.038;8.372;2023-11-21T08:25:08;9.40;99.90
12434;DHT22;6281;49.038;8.372;2023-11-21T08:27:34;9.50;99.90
12434;DHT22;6281;49.038;8.372;2023-11-21T08:30:02;9.70;99.90
12434;DHT22;6281;49.038;8.372;2023-11-21T08:32:29;9.60;99.90
12434;DHT22;6281;49.038;8.372;2023-11-21T08:34:57;9.60;99.90
12434;DHT22;6281;49.038;8.372;2023-11-21T08:37:24;9.60;99.90
12434;DHT22;6281;49.038;8.372;2023-11-21T08:39:54;9.70;99.90
12434;DHT22;6281;49.038;8.372;2023-11-21T08:42:20;9.60;99.90
12434;DHT22;6281;49.038;8.372;2023-11-21T08:44:48;9.60;99.90
12434;DHT22;6281;49.038;8.372;2023-11-21T08:47:15;9.60;99.90
12434;DHT22;6281;49.038;8.372;2023-11-21T08:49:42;9.70;99.90
12434;DHT22;6281;49.038;8.372;2023-11-21T08:52:09;9.50;99.90
12434;DHT22;6281;49.038;8.372;2023-11-21T08:54:36;9.50;99.90
12434;DHT22;6281;49.038;8.372;2023-11-21T08:57:04;9.70;99.90
12434;DHT22;6281;49.038;8.372;2023-11-21T08:59:31;9.60;99.90
12434;DHT22;6281;49.038;8.372;2023-11-21T09:01:58;9.70;99.90
12434;DHT22;6281;49.038;8.372;2023-11-21T09:04:25;9.70;99.90
12434;DHT22;6281;49.038;8.372;2023-11-21T09:06:52;9.60;99.90
12434;DHT22;6281;49.038;8.372;2023-11-21T09:09:19;9.60;99.90
12434;DHT22;6281;49.038;8.372;2023-11-21T09:11:46;9.60;99.90
12434;DHT22;6281;49.038;8.372;2023-11-21T09:14:19;9.70;99.90
12434;DHT22;6281;49.038;8.372;2023-11-21T09:16:46;9.70;99.90
12434;DHT22;6281;49.038;8.372;2023-11-21T09:19:12;9.60;99.90
12434;DHT22;6281;49.038;8.372;2023-11-21T09:21:40;9.70;99.90
12434;DHT22;6281;49.038;8.372;2023-11-21T09:24:08;9.70;99.90
12434;DHT22;6281;49.038;8.372;2023-11-21T09:26:35;9.70;99.90
12434;DHT22;6281;49.038;8.372;2023-11-21T09:29:02;9.70;99.90
12434;DHT22;6281;49.038;8.372;2023-11-21T09:31:31;9.70;99.90
12434;DHT22;6281;49.038;8.372;2023-11-21T09:33:59;9.60;99.90
12434;DHT22;6281;49.038;8.372;2023-11-21T09:36:26;9.70;99.90
12434;DHT22;6281;49.038;8.372;2023-11-21T09:38:55;9.70;99.90
12434;DHT22;6281;49.038;8.372;2023-11-21T09:41:30;9.80;99.90
12434;DHT22;6281;49.038;8.372;2023-11-21T09:44:02;9.70;99.90
12434;DHT22;6281;49.038;8.372;2023-11-21T09:46:35;9.80;99.90
12434;DHT22;6281;49.038;8.372;2023-11-21T09:49:05;9.90;99.90
12434;DHT22;6281;49.038;8.372;2023-11-21T09:51:39;9.80;99.90
12434;DHT22;6281;49.038;8.372;2023-11-21T09:54:10;9.90;99.90
12434;DHT22;6281;49.038;8.372;2023-11-21T09:56:37;9.90;99.90
12434;DHT22;6281;49.038;8.372;2023-11-21T09:59:05;9.90;99.90
12434;DHT22;6281;49.038;8.372;2023-11-21T10:01:36;9.90;99.90
12434;DHT22;6281;49.038;8.372;2023-11-21T10:04:05;9.90;99.90
12434;DHT22;6281;49.038;8.372;2023-11-21T10:06:38;9.90;99.90
12434;DHT22;6281;49.038;8.372;2023-11-21T10:09:06;9.70;99.90
12434;DHT22;6281;49.038;8.372;2023-11-21T10:11:39;9.70;99.90
12434;DHT22;6281;49.038;8.372;2023-11-21T10:14:08;9.70;99.90
12434;DHT22;6281;49.038;8.372;2023-11-21T10:16:40;9.70;99.90
12434;DHT22;6281;49.038;8.372;2023-11-21T10:19:10;9.70;99.90
12434;DHT22;6281;49.038;8.372;2023-11-21T10:21:41;9.70;99.90
12434;DHT22;6281;49.038;8.372;2023-11-21T10:24:08;9.60;99.90
12434;DHT22;6281;49.038;8.372;2023-11-21T10:26:36;9.60;99.90
12434;DHT22;6281;49.038;8.372;2023-11-21T10:29:03;9.70;99.90
12434;DHT22;6281;49.038;8.372;2023-11-21T10:31:30;9.60;99.90
12434;DHT22;6281;49.038;8.372;2023-11-21T10:34:15;9.50;99.90
12434;DHT22;6281;49.038;8.372;2023-11-21T10:36:43;9.50;99.90
12434;DHT22;6281;49.038;8.372;2023-11-21T10:39:14;9.50;99.90
12434;DHT22;6281;49.038;8.372;2023-11-21T10:41:43;9.50;99.90
12434;DHT22;6281;49.038;8.372;2023-11-21T10:44:10;9.60;99.90
12434;DHT22;6281;49.038;8.372;2023-11-21T10:46:40;9.50;99.90
12434;DHT22;6281;49.038;8.372;2023-11-21T10:49:11;9.60;99.90
12434;DHT22;6281;49.038;8.372;2023-11-21T10:51:43;9.50;99.90
12434;DHT22;6281;49.038;8.372;2023-11-21T10:54:10;9.60;99.90
12434;DHT22;6281;49.038;8.372;2023-11-21T10:56:39;9.60;99.90
12434;DHT22;6281;49.038;8.372;2023-11-21T10:59:10;9.70;99.90
12434;DHT22;6281;49.038;8.372;2023-11-21T11:01:40;9.70;99.90
12434;DHT22;6281;49.038;8.372;2023-11-21T11:04:09;9.70;99.90
12434;DHT22;6281;49.038;8.372;2023-11-21T11:06:43;9.80;99.90
12434;DHT22;6281;49.038;8.372;2023-11-21T11:09:13;9.80;99.90
12434;DHT22;6281;49.038;8.372;2023-11-21T11:11:42;9.60;99.90
12434;DHT22;6281;49.038;8.372;2023-11-21T11:14:11;9.70;99.90
12434;DHT22;6281;49.038;8.372;2023-11-21T11:16:39;9.60;99.90
12434;DHT22;6281;49.038;8.372;2023-11-21T11:19:06;9.60;99.90
12434;DHT22;6281;49.038;8.372;2023-11-21T11:21:45;9.60;99.90
12434;DHT22;6281;49.038;8.372;2023-11-21T11:24:32;9.70;99.90
12434;DHT22;6281;49.038;8.372;2023-11-21T11:27:10;9.70;99.90
12434;DHT22;6281;49.038;8.372;2023-11-21T11:29:45;9.60;99.90
12434;DHT22;6281;49.038;8.372;2023-11-21T11:32:21;9.70;99.90
12434;DHT22;6281;49.038;8.372;2023-11-21T11:34:59;9.70;99.90
12434;DHT22;6281;49.038;8.372;2023-11-21T11:37:29;9.60;99.90
12434;DHT22;6281;49.038;8.372;2023-11-21T11:39:56;9.80;99.90
12434;DHT22;6281;49.038;8.372;2023-11-21T11:42:23;9.70;99.90
12434;DHT22;6281;49.038;8.372;2023-11-21T11:44:51;9.80;99.90
12434;DHT22;6281;49.038;8.372;2023-11-21T11:47:22;9.70;99.90
12434;DHT22;6281;49.038;8.372;2023-11-21T11:49:57;9.80;99.90
12434;DHT22;6281;49.038;8.372;2023-11-21T11:52:37;9.80;99.90
12434;DHT22;6281;49.038;8.372;2023-11-21T11:55:06;9.90;99.90
12434;DHT22;6281;49.038;8.372;2023-11-21T11:57:35;9.90;99.90
12434;DHT22;6281;49.038;8.372;2023-11-21T12:00:11;9.90;99.90
12434;DHT22;6281;49.038;8.372;2023-11-21T12:02:42;9.90;99.90
12434;DHT22;6281;49.038;8.372;2023-11-21T12:05:09;9.80;99.90
12434;DHT22;6281;49.038;8.372;2023-11-21T12:07:46;9.80;99.90
12434;DHT22;6281;49.038;8.372;2023-11-21T12:10:17;9.90;99.90
12434;DHT22;6281;49.038;8.372;2023-11-21T12:12:46;9.80;99.90
12434;DHT22;6281;49.038;8.372;2023-11-21T12:15:13;9.70;99.90
12434;DHT22;6281;49.038;8.372;2023-11-21T12:17:42;9.80;99.90
12434;DHT22;6281;49.038;8.372;2023-11-21T12:20:10;9.90;99.90
12434;DHT22;6281;49.038;8.372;2023-11-21T12:28:18;10.20;99.90
12434;DHT22;6281;49.038;8.372;2023-11-21T12:30:47;10.20;99.90
12434;DHT22;6281;49.038;8.372;2023-11-21T12:33:14;10.20;99.90
12434;DHT22;6281;49.038;8.372;2023-11-21T12:35:43;10.20;99.90
12434;DHT22;6281;49.038;8.372;2023-11-21T12:38:11;10.10;99.90
12434;DHT22;6281;49.038;8.372;2023-11-21T12:40:38;10.20;99.90
12434;DHT22;6281;49.038;8.372;2023-11-21T12:43:07;10.00;99.90
12434;DHT22;6281;49.038;8.372;2023-11-21T12:45:35;10.10;99.90
12434;DHT22;6281;49.038;8.372;2023-11-21T12:48:05;10.20;99.90
12434;DHT22;6281;49.038;8.372;2023-11-21T12:50:37;10.40;99.90
12434;DHT22;6281;49.038;8.372;2023-11-21T12:53:05;10.30;99.90
12434;DHT22;6281;49.038;8.372;2023-11-21T12:55:35;10.20;99.90
12434;DHT22;6281;49.038;8.372;2023-11-21T12:58:03;10.20;99.90
12434;DHT22;6281;49.038;8.372;2023-11-21T13:00:35;10.20;99.90
12434;DHT22;6281;49.038;8.372;2023-11-21T13:03:05;10.30;99.90
12434;DHT22;6281;49.038;8.372;2023-11-21T13:05:33;10.50;99.90
12434;DHT22;6281;49.038;8.372;2023-11-21T13:08:02;10.50;99.90
12434;DHT22;6281;49.038;8.372;2023-11-21T13:10:30;10.50;99.90
12434;DHT22;6281;49.038;8.372;2023-11-21T13:12:59;10.70;99.90
12434;DHT22;6281;49.038;8.372;2023-11-21T13:15:27;10.80;99.90
12434;DHT22;6281;49.038;8.372;2023-11-21T13:17:56;10.70;99.90
12434;DHT22;6281;49.038;8.372;2023-11-21T13:20:24;10.70;99.90
12434;DHT22;6281;49.038;8.372;2023-11-21T13:22:52;10.60;99.90
12434;DHT22;6281;49.038;8.372;2023-11-21T13:25:20;10.60;99.90
12434;DHT22;6281;49.038;8.372;2023-11-21T13:27:47;10.40;99.90
12434;DHT22;6281;49.038;8.372;2023-11-21T13:30:17;10.60;99.90
12434;DHT22;6281;49.038;8.372;2023-11-21T13:32:46;10.60;99.90
12434;DHT22;6281;49.038;8.372;2023-11-21T13:35:17;10.80;99.90
12434;DHT22;6281;49.038;8.372;2023-11-21T13:37:48;11.00;99.90
12434;DHT22;6281;49.038;8.372;2023-11-21T13:40:20;11.20;99.90
12434;DHT22;6281;49.038;8.372;2023-11-21T13:42:49;11.10;99.90
12434;DHT22;6281;49.038;8.372;2023-11-21T13:45:20;10.90;99.90
12434;DHT22;6281;49.038;8.372;2023-11-21T13:47:49;10.70;99.90
12434;DHT22;6281;49.038;8.372;2023-11-21T13:50:17;10.80;99.90
12434;DHT22;6281;49.038;8.372;2023-11-21T13:52:48;10.70;99.90
12434;DHT22;6281;49.038;8.372;2023-11-21T13:55:16;10.60;99.90
12434;DHT22;6281;49.038;8.372;2023-11-21T13:57:43;10.50;99.90
12434;DHT22;6281;49.038;8.372;2023-11-21T14:00:15;10.80;99.90
12434;DHT22;6281;49.038;8.372;2023-11-21T14:03:06;10.60;99.90
12434;DHT22;6281;49.038;8.372;2023-11-21T14:05:41;10.70;99.90
12434;DHT22;6281;49.038;8.372;2023-11-21T14:08:08;10.80;99.90
12434;DHT22;6281;49.038;8.372;2023-11-21T14:10:37;10.80;99.90
12434;DHT22;6281;49.038;8.372;2023-11-21T14:13:09;11.00;99.90
12434;DHT22;6281;49.038;8.372;2023-11-21T14:15:39;11.20;99.90
12434;DHT22;6281;49.038;8.372;2023-11-21T14:18:10;11.20;99.90
12434;DHT22;6281;49.038;8.372;2023-11-21T14:20:37;11.40;99.90
12434;DHT22;6281;49.038;8.372;2023-11-21T14:23:05;11.40;99.90
12434;DHT22;6281;49.038;8.372;2023-11-21T14:25:32;11.30;99.90
12434;DHT22;6281;49.038;8.372;2023-11-21T14:28:00;11.40;99.90
12434;DHT22;6281;49.038;8.372;2023-11-21T14:30:28;11.40;99.90
12434;DHT22;6281;49.038;8.372;2023-11-21T14:32:57;11.20;99.90
12434;DHT22;6281;49.038;8.372;2023-11-21T14:35:25;11.20;99.90
12434;DHT22;6281;49.038;8.372;2023-11-21T14:37:53;11.00;99.90
12434;DHT22;6281;49.038;8.372;2023-11-21T14:40:21;10.90;99.90
12434;DHT22;6281;49.038;8.372;2023-11-21T14:42:50;10.90;99.90
12434;DHT22;6281;49.038;8.372;2023-11-21T14:45:18;11.00;99.90
12434;DHT22;6281;49.038;8.372;2023-11-21T14:47:46;11.00;99.90
12434;DHT22;6281;49.038;8.372;2023-11-21T14:50:20;11.00;99.90
12434;DHT22;6281;49.038;8.372;2023-11-21T14:53:02;11.10;99.90
12434;DHT22;6281;49.038;8.372;2023-11-21T14:55:31;11.30;99.90
12434;DHT22;6281;49.038;8.372;2023-11-21T14:58:04;11.20;99.90
12434;DHT22;6281;49.038;8.372;2023-11-21T15:00:31;11.10;99.90
12434;DHT22;6281;49.038;8.372;2023-11-21T15:03:09;11.10;99.90
12434;DHT22;6281;49.038;8.372;2023-11-21T15:05:47;10.90;99.90
12434;DHT22;6281;49.038;8.372;2023-11-21T15:08:18;11.00;99.90
12434;DHT22;6281;49.038;8.372;2023-11-21T15:11:33;11.10;99.90
12434;DHT22;6281;49.038;8.372;2023-11-21T15:14:01;11.10;99.90
12434;DHT22;6281;49.038;8.372;2023-11-21T15:16:32;11.00;99.90
12434;DHT22;6281;49.038;8.372;2023-11-21T15:18:59;10.80;99.90
12434;DHT22;6281;49.038;8.372;2023-11-21T15:21:26;10.60;99.90
12434;DHT22;6281;49.038;8.372;2023-11-21T15:23:55;10.60;99.90
12434;DHT22;6281;49.038;8.372;2023-11-21T15:26:21;10.50;99.90
12434;DHT22;6281;49.038;8.372;2023-11-21T15:28:49;10.40;99.90
12434;DHT22;6281;49.038;8.372;2023-11-21T15:31:16;10.40;99.90
12434;DHT22;6281;49.038;8.372;2023-11-21T15:33:47;10.40;99.90
12434;DHT22;6281;49.038;8.372;2023-11-21T15:36:14;10.30;99.90
12434;DHT22;6281;49.038;8.372;2023-11-21T15:38:41;10.00;99.90
12434;DHT22;6281;49.038;8.372;2023-11-21T15:44:17;10.00;99.90
12434;DHT22;6281;49.038;8.372;2023-11-21T15:46:44;10.10;99.90
12434;DHT22;6281;49.038;8.372;2023-11-21T15:49:11;10.00;99.90
12434;DHT22;6281;49.038;8.372;2023-11-21T15:51:44;9.90;99.90
12434;DHT22;6281;49.038;8.372;2023-11-21T15:54:18;10.00;99.90
12434;DHT22;6281;49.038;8.372;2023-11-21T15:56:45;9.90;99.90
12434;DHT22;6281;49.038;8.372;2023-11-21T15:59:59;9.80;99.90
12434;DHT22;6281;49.038;8.372;2023-11-21T16:02:19;10.00;99.90
12434;DHT22;6281;49.038;8.372;2023-11-21T16:04:46;9.90;99.90
12434;DHT22;6281;49.038;8.372;2023-11-21T16:07:13;10.00;99.90
12434;DHT22;6281;49.038;8.372;2023-11-21T16:09:42;10.10;99.90
12434;DHT22;6281;49.038;8.372;2023-11-21T16:12:09;10.00;99.90
12434;DHT22;6281;49.038;8.372;2023-11-21T16:14:39;10.00;99.90